Wiconisco, Pennsylvania
Current Conditions -  °F | °C
As of 11:08 AM on Sunday 25 Jan 2015 (Local Time) from KMUI Reporting Station
Overcast Overcast  
Wind Chill: 31°   Ceiling: 3000
Heat Index: 37°   Visibility: 10mi
Dew Point: 30°   Wind: 9mph
Humidity: 75%   Direction: 230°SW
Pressure: 29.8"   Gusts: NA
Location:  40.57°N, 76.69°W
Report Text: KMUI 251608Z AUTO 23008KT 10SM OVC030 03/M01 A2980 RMK AO2
Loading
Personal Weather Stations






























Interactive Weather Map New forecast layout! Learn more

10-Day Weather Forecast

Advertisements
Track Severe Weather on mobile